Flight Track Log - Related Links

Times and Time Zones

All times are in EDT time to prevent confusion due to time zone crossing. See the DAL131 flight status page for this flight to view local times or setup timezone preferences in your user account.

Time Position Orientation Groundspeed Altitude Reporting Facility
EDT Latitude Longitude Course Direction KTS MPH feet Rate Location/Type
Mon 07:43:00 AM 48.4537 11.3854 294° West  Level FlightAware Approximate
Mon 07:44:00 AM 48.5024 11.2186 294° West  Level FlightAware Approximate
Mon 07:47:02 AM 48.3480 11.8290 82° East 194 223 2,700  Level FlightAware ADS-B
Mon 07:47:27 AM 48.3500 11.8630 85° East 195 224 3,700 2,073 Climbing FlightAware ADS-B
Mon 07:47:57 AM 48.3540 11.9030 81° East 200 230 4,600 1,400 Climbing FlightAware ADS-B
Mon 07:48:27 AM 48.3560 11.9480 86° East 227 261 5,100 750 Climbing FlightAware ADS-B
Mon 07:48:37 AM 48.3510 11.9630 117° Southeast 244 281 5,100 1,200 Level FlightAware ADS-B
Mon 07:48:52 AM 48.3390 11.9790 138° Southeast 249 287 5,600 2,133 Climbing FlightAware ADS-B
Mon 07:49:22 AM 48.3090 12.0080 147° Southeast 249 287 6,700 1,964 Climbing FlightAware ADS-B
Mon 07:49:47 AM 48.2800 12.0250 159° South 272 313 7,400 1,418 Climbing FlightAware ADS-B
Mon 07:50:17 AM 48.2430 12.0040 201° Southwest 315 362 8,000 1,200 Climbing FlightAware ADS-B
Mon 07:50:32 AM 48.2310 11.9760 237° Southwest 329 379 8,300 1,500 Climbing FlightAware ADS-B
Mon 07:50:57 AM 48.2180 11.9180 251° West 351 404 9,000 1,500 Climbing FlightAware ADS-B
Mon 07:51:12 AM 48.2100 11.8850 250° West 366 421 9,300 1,900 Climbing FlightAware ADS-B
Mon 07:51:57 AM 48.1830 11.7740 250° West 379 436 10,900 2,259 Climbing FlightAware ADS-B
Mon 07:52:37 AM 48.1570 11.6770 248° West 390 449 12,500 2,329 Climbing FlightAware ADS-B
Mon 07:53:22 AM 48.1250 11.5600 248° West 397 457 14,200 2,188 Climbing FlightAware ADS-B
Mon 07:54:02 AM 48.0970 11.4580 248° West 405 466 15,600 2,100 Climbing FlightAware ADS-B
Mon 07:54:42 AM 48.0690 11.3520 248° West 413 475 17,000 1,976 Climbing FlightAware ADS-B
Mon 07:55:27 AM 48.0360 11.2290 248° West 423 487 18,400 1,835 Climbing FlightAware ADS-B
Mon 07:56:07 AM 48.0070 11.1200 248° West 435 501 19,600 1,694 Climbing FlightAware ADS-B
Mon 07:56:52 AM 47.9770 10.9930 251° West 441 507 20,800 1,694 Climbing FlightAware ADS-B
Mon 07:57:32 AM 47.9550 10.8720 255° West 449 517 22,000 1,725 Climbing FlightAware ADS-B
Mon 07:58:12 AM 47.9330 10.7510 255° West 454 522 23,100 1,553 Climbing FlightAware ADS-B
Mon 07:58:57 AM 47.9090 10.6150 255° West 457 526 24,200 1,412 Climbing FlightAware ADS-B
Mon 07:59:37 AM 47.8870 10.4940 255° West 463 533 25,100 266 Climbing FlightAware ADS-B
Mon 08:02:00 AM 48.0177 10.1102 297° West  Level Estimated
Mon 08:03:00 AM 48.0722 9.9485 297° West  Level Estimated
Mon 08:04:00 AM 48.1265 9.7865 297° West  Level Estimated
Mon 08:05:00 AM 48.1805 9.6242 297° West  Level Estimated
Mon 08:06:00 AM 48.2343 9.4615 296° West  Level Estimated
Mon 08:07:00 AM 48.2878 9.2985 296° West  Level Estimated
Mon 08:08:00 AM 48.3412 9.1352 296° West  Level Estimated
Mon 08:09:00 AM 48.3943 8.9715 296° West  Level Estimated
Mon 08:10:00 AM 48.4471 8.8075 296° West  Level Estimated
Mon 08:11:00 AM 48.4998 8.6431 296° West  Level Estimated
Mon 08:12:00 AM 48.5521 8.4787 296° West  Level Estimated
Mon 08:13:00 AM 48.6041 8.3139 296° West  Level Estimated
Mon 08:14:00 AM 48.6560 8.1488 295° West  Level Estimated
Mon 08:15:00 AM 48.7076 7.9834 295° West  Level Estimated
Mon 08:16:00 AM 48.7589 7.8176 295° West  Level Estimated
Mon 08:17:00 AM 48.8101 7.6515 295° West  Level Estimated
Mon 08:18:00 AM 48.8610 7.4850 295° West  Level Estimated
Mon 08:19:00 AM 48.9116 7.3182 295° West  Level Estimated
Mon 08:20:00 AM 48.9620 7.1511 295° West  Level Estimated
Mon 08:20:22 AM 47.8240 6.4940 295° West 481 554 29,900  Level FlightAware ADS-B
Mon 08:21:02 AM 47.8430 6.3770 284° West 480 552 29,900  Level FlightAware ADS-B
Mon 08:21:47 AM 47.8660 6.2430 284° West 481 554 29,900  Level FlightAware ADS-B
Mon 08:22:27 AM 47.8880 6.1090 284° West 483 556 29,900  Level FlightAware ADS-B
Mon 08:23:12 AM 47.9170 5.9710 287° West 487 560 29,900  Level FlightAware ADS-B
Mon 08:23:47 AM 47.9450 5.8560 290° West 486 559 29,900  Level FlightAware ADS-B
Mon 08:24:41 AM 47.9852 5.6534 287° West 488 562 29,900  Level FlightAware ADS-B
Mon 08:25:32 AM 48.0143 5.4875 285° West 488 562 29,900  Level FlightAware ADS-B
Mon 08:26:10 AM 48.0355 5.3646 285° West 488 562 29,900  Level FlightAware ADS-B
Mon 08:26:40 AM 48.0528 5.2660 285° West 488 562 29,900  Level FlightAware ADS-B
Mon 08:27:11 AM 48.0707 5.1649 285° West 483 556 29,900  Level FlightAware ADS-B
Mon 08:27:48 AM 48.0912 5.0489 285° West 482 555 29,900  Level FlightAware ADS-B
Mon 08:28:19 AM 48.1087 4.9482 285° West 480 552 29,900  Level FlightAware ADS-B
Mon 08:29:02 AM 48.1310 4.8170 284° West 479 551 29,900  Level FlightAware ADS-B
Mon 08:29:17 AM 48.1409 4.7610 285° West 480 552 29,900  Level FlightAware ADS-B
Mon 08:29:57 AM 48.1624 4.6336 284° West 482 555 29,900  Level FlightAware ADS-B
Mon 08:30:27 AM 48.1793 4.5341 284° West 484 557 29,900  Level FlightAware ADS-B
Mon 08:31:09 AM 48.2018 4.3992 284° West 484 557 29,900  Level FlightAware ADS-B
Mon 08:31:47 AM 48.2210 4.2860 284° West 486 559 29,900  Level FlightAware ADS-B
Mon 08:31:55 AM 48.2268 4.2487 283° West 486 559 29,900  Level FlightAware ADS-B
Mon 08:32:26 AM 48.2436 4.1470 284° West 486 559 29,900  Level FlightAware ADS-B
Mon 08:33:12 AM 48.2670 4.0060 284° West 487 560 29,900 66 Level FlightAware ADS-B
Mon 08:33:57 AM 48.2900 3.8590 283° West 488 562 30,000  Climbing FlightAware ADS-B
Mon 08:34:37 AM 48.3120 3.7270 284° West 487 560 29,900 -100 Descending FlightAware ADS-B
Mon 08:34:57 AM 48.3236 3.6514 283° West 486 559 29,900  Level FlightAware ADS-B
Mon 08:35:28 AM 48.3394 3.5517 283° West 484 557 29,900  Level FlightAware ADS-B
Mon 08:35:59 AM 48.3557 3.4491 283° West 481 554 29,900  Level FlightAware ADS-B
Mon 08:36:30 AM 48.3710 3.3510 283° West 479 551 29,900  Level FlightAware ADS-B
Mon 08:37:09 AM 48.3909 3.2236 283° West 479 551 29,900  Level FlightAware ADS-B
Mon 08:37:40 AM 48.4063 3.1240 283° West 474 545 29,900  Level FlightAware ADS-B
Mon 08:38:11 AM 48.4211 3.0271 283° West 472 543 29,900 97 Level FlightAware ADS-B
Mon 08:38:42 AM 48.4383 2.9274 285° West 471 542 30,000 95 Climbing FlightAware ADS-B
Mon 08:39:14 AM 48.4501 2.8257 280° West 471 542 30,000  Level FlightAware ADS-B
Mon 08:39:44 AM 48.4584 2.7283 277° West 467 537 30,000  Level FlightAware ADS-B
Mon 08:40:15 AM 48.4678 2.6290 278° West 466 536 30,000  Level FlightAware ADS-B
Mon 08:40:57 AM 48.4813 2.4957 279° West 465 535 30,000  Level FlightAware ADS-B
Mon 08:41:28 AM 48.4917 2.3973 279° West 464 534 30,000 -95 Level FlightAware ADS-B
Mon 08:42:00 AM 48.5021 2.2960 279° West 461 531 29,900  Descending FlightAware ADS-B
Mon 08:42:30 AM 48.5119 2.1996 279° West 460 529 30,000 91 Climbing FlightAware ADS-B
Mon 08:43:06 AM 48.5230 2.0857 278° West 459 528 30,000 -1,627 Level FlightAware ADS-B
Mon 08:43:29 AM 48.5214 2.0243 278° West 470 541 28,400  Descending FlightAware UK
Mon 08:43:44 AM 48.5340 1.9657 278° West 459 528 30,000  Climbing FlightAware ADS-B
Mon 08:43:59 AM 48.5289 1.9284 278° West 470 541 28,400  Descending FlightAware UK
Mon 08:44:14 AM 48.5426 1.8699 278° West 458 527 30,000 2,087 Climbing FlightAware ADS-B
Mon 08:44:45 AM 48.5512 1.7730 278° West 456 525 30,000 -1,920 Level FlightAware ADS-B
Mon 08:45:04 AM 48.5477 1.7214 278° West 472 543 28,400  Descending FlightAware UK
Mon 08:45:17 AM 48.5599 1.6742 278° West 455 524 30,000  Climbing FlightAware ADS-B
Mon 08:45:34 AM 48.5557 1.6269 278° West 470 541 28,400  Descending FlightAware UK
Mon 08:45:47 AM 48.5682 1.5802 278° West 454 522 30,000 2,233 Climbing FlightAware ADS-B
Mon 08:46:17 AM 48.5765 1.4842 277° West 453 521 30,000 -2,043 Level FlightAware ADS-B
Mon 08:46:34 AM 48.5723 1.4396 277° West 472 543 28,400  Descending FlightAware UK
Mon 08:46:49 AM 48.5850 1.3854 277° West 450 518 30,000  Climbing FlightAware ADS-B
Mon 08:47:22 AM 48.5849 1.2915 277° West 476 548 28,400  Descending FlightAware UK
Mon 08:47:27 AM 48.5940 1.2760 277° West 447 514 30,000 7,385 Climbing FlightAware ADS-B
Mon 08:47:35 AM 48.5970 1.2419 278° West 448 516 30,000 -3,840 Level FlightAware ADS-B
Mon 08:47:52 AM 48.5928 1.1990 278° West 478 550 28,400  Descending FlightAware UK
Mon 08:48:11 AM 48.6063 1.1323 278° West 445 512 30,000  Climbing FlightAware ADS-B
Mon 08:48:34 AM 48.6036 1.0709 278° West 476 548 28,400  Descending FlightAware UK
Mon 08:48:43 AM 48.6145 1.0336 278° West 443 510 30,000  Climbing FlightAware ADS-B
Mon 08:48:58 AM 48.6096 0.9976 278° West 472 543 28,400 -2,462 Descending FlightAware UK
Mon 08:49:22 AM 48.6155 0.9248 277° West 466 536 28,400 2,824 Level FlightAware UK
Mon 08:49:32 AM 48.6260 0.8900 277° West 437 503 30,000  Climbing FlightAware ADS-B
Mon 08:49:52 AM 48.6228 0.8341 277° West 464 534 28,400  Descending FlightAware UK
Mon 08:50:12 AM 48.6360 0.7690 277° West 438 504 30,000  Climbing FlightAware ADS-B
Mon 08:50:28 AM 48.6319 0.7266 277° West 462 532 28,400  Descending FlightAware UK
Mon 08:50:57 AM 48.6470 0.6360 277° West 440 506 30,000  Climbing FlightAware ADS-B
Mon 08:51:34 AM 48.6480 0.5270 277° West 466 536 28,400  Descending FlightAware UK
Mon 08:51:37 AM 48.6560 0.5140 277° West 441 507 30,000 3,429 Climbing FlightAware ADS-B
Mon 08:52:02 AM 48.6626 0.4289 277° West 442 509 30,000 -1,920 Level FlightAware ADS-B
Mon 08:52:27 AM 48.6607 0.3625 277° West 470 541 28,400  Descending FlightAware UK
Mon 08:52:46 AM 48.6729 0.2938 277° West 443 510 30,000  Climbing FlightAware ADS-B
Mon 08:53:09 AM 48.6706 0.2333 277° West 472 543 28,400 -1,811 Descending FlightAware UK
Mon 08:53:39 AM 48.6776 0.1419 277° West 474 545 28,400 2,400 Level FlightAware UK
Mon 08:53:49 AM 48.6875 0.1008 277° West 443 510 30,000  Climbing FlightAware ADS-B
Mon 08:54:21 AM 48.6874 0.0143 277° West 474 545 28,400  Descending FlightAware UK
Mon 08:54:27 AM 48.6960 -0.0090 277° West 441 507 30,000 1,882 Climbing FlightAware ADS-B
Mon 08:55:12 AM 48.7060 -0.1470 276° West 439 505 30,000 -1,600 Level FlightAware ADS-B
Mon 08:55:27 AM 48.7020 -0.1872 276° West 468 539 28,400 -2,909 Descending FlightAware UK
Mon 08:55:45 AM 48.7059 -0.2424 276° West 470 541 28,400 3,840 Level FlightAware UK
Mon 08:55:52 AM 48.7140 -0.2680 276° West 439 505 30,000  Climbing FlightAware ADS-B
Mon 08:56:15 AM 48.7115 -0.3338 276° West 468 539 28,400  Descending FlightAware UK
Mon 08:56:37 AM 48.7240 -0.4010 276° West 439 505 30,000  Climbing FlightAware ADS-B
Mon 08:57:09 AM 48.7234 -0.4976 276° West 466 536 28,400  Descending FlightAware UK
Mon 08:57:12 AM 48.7310 -0.5080 276° West 439 505 30,000  Climbing FlightAware ADS-B
Mon 08:57:39 AM 48.7297 -0.5891 276° West 466 536 28,400  Descending FlightAware UK
Mon 08:57:57 AM 48.7410 -0.6530 276° West 440 506 30,000  Climbing FlightAware ADS-B
Mon 08:58:26 AM 48.7398 -0.7356 276° West 466 536 28,400  Descending FlightAware UK
Mon 08:58:37 AM 48.7490 -0.7720 276° West 441 507 30,000  Climbing FlightAware ADS-B
Mon 08:58:56 AM 48.7462 -0.8277 276° West 470 541 28,400  Descending FlightAware UK
Mon 08:59:06 AM 48.7553 -0.8693 276° West 442 509 30,000  Climbing FlightAware ADS-B
Mon 08:59:32 AM 48.7536 -0.9388 276° West 470 541 28,400 -1,920 Descending FlightAware UK
Mon 08:59:56 AM 48.7584 -1.0127 276° West 468 539 28,400 2,743 Level FlightAware UK
Mon 09:00:07 AM 48.7670 -1.0470 276° West 441 507 30,000 1,882 Climbing FlightAware ADS-B
Mon 09:00:47 AM 48.7750 -1.1680 276° West 441 507 30,000 -1,745 Level FlightAware ADS-B
Mon 09:01:02 AM 48.7710 -1.2151 276° West 470 541 28,400 -2,909 Descending FlightAware UK
Mon 09:01:20 AM 48.7746 -1.2697 276° West 470 541 28,400 4,800 Level FlightAware UK
Mon 09:01:22 AM 48.7820 -1.2790 276° West 441 507 30,000  Climbing FlightAware ADS-B
Mon 09:02:02 AM 48.7829 -1.3992 276° West 468 539 28,400  Descending FlightAware UK
Mon 09:02:22 AM 48.7920 -1.4390 276° West 440 506 30,000  Climbing FlightAware ADS-B
Mon 09:02:44 AM 48.7908 -1.5279 276° West 466 536 28,400 -2,400 Descending FlightAware UK
Mon 09:03:02 AM 48.7941 -1.5833 275° West 468 539 28,400 4,174 Level FlightAware UK
Mon 09:03:07 AM 48.8000 -1.5870 275° West 441 507 30,000  Climbing FlightAware ADS-B
Mon 09:03:38 AM 48.8006 -1.6938 275° West 468 539 28,400  Descending FlightAware UK
Mon 09:03:47 AM 48.8090 -1.7230 275° West 441 507 30,000  Climbing FlightAware ADS-B
Mon 09:04:20 AM 48.8082 -1.8231 275° West 466 536 28,400  Descending FlightAware UK
Mon 09:04:27 AM 48.8160 -1.8450 275° West 441 507 30,000  Climbing FlightAware ADS-B
Mon 09:05:02 AM 48.8158 -1.9521 275° West 466 536 28,400  Descending FlightAware UK
Mon 09:05:12 AM 48.8240 -1.9870 275° West 443 510 30,000  Climbing FlightAware ADS-B
Mon 09:05:32 AM 48.8210 -2.0449 275° West 466 536 28,400 -2,526 Descending FlightAware UK
Mon 09:05:50 AM 48.8240 -2.1008 275° West 468 539 28,400 4,800 Level FlightAware UK
Mon 09:05:52 AM 48.8300 -2.1040 275° West 444 511 30,000  Climbing FlightAware ADS-B
Mon 09:06:08 AM 48.8271 -2.1569 275° West 468 539 28,400  Descending FlightAware UK
Mon 09:06:37 AM 48.8380 -2.2510 275° West 445 512 30,000  Climbing FlightAware ADS-B
Mon 09:07:07 AM 48.8374 -2.3440 275° West 470 541 28,400  Descending FlightAware UK
Mon 09:07:17 AM 48.8450 -2.3770 275° West 445 512 30,000  Climbing FlightAware ADS-B
Mon 09:07:43 AM 48.8433 -2.4556 275° West 470 541 28,400  Descending FlightAware UK
Mon 09:07:57 AM 48.8520 -2.5010 275° West 444 511 30,000  Climbing FlightAware ADS-B
Mon 09:08:19 AM 48.8490 -2.5670 275° West 472 543 28,400 -2,400 Descending FlightAware UK
Mon 09:08:37 AM 48.8518 -2.6231 274° West 474 545 28,400 4,174 Level FlightAware UK
Mon 09:08:42 AM 48.8580 -2.6330 274° West 444 511 30,000  Climbing FlightAware ADS-B
Mon 09:09:01 AM 48.8555 -2.6978 274° West 472 543 28,400  Descending FlightAware UK
Mon 09:09:27 AM 48.8660 -2.7810 274° West 443 510 30,000  Climbing FlightAware ADS-B
Mon 09:10:01 AM 48.8648 -2.8838 274° West 470 541 28,400  Descending FlightAware UK
Mon 09:10:07 AM 48.8720 -2.9060 274° West 442 509 30,000 2,087 Climbing FlightAware ADS-B
Mon 09:10:47 AM 48.8780 -3.0270 274° West 443 510 30,000 -1,600 Level FlightAware ADS-B
Mon 09:11:07 AM 48.8749 -3.0885 274° West 468 539 28,400 -2,526 Descending FlightAware UK
Mon 09:11:25 AM 48.8774 -3.1436 274° West 468 539 28,400 3,840 Level FlightAware UK
Mon 09:11:32 AM 48.8840 -3.1630 274° West 443 510 30,000 3,191 Climbing FlightAware ADS-B
Mon 09:12:12 AM 48.8900 -3.2870 274° West 437 503 30,900 1,500 Climbing FlightAware ADS-B
Mon 09:12:52 AM 48.8960 -3.4070 274° West 427 491 32,000 269 Climbing FlightAware ADS-B
Mon 09:13:19 AM 48.8930 -3.4900 274° West 464 534 31,200 1,333 Descending FlightAware UK
Mon 09:13:37 AM 48.9020 -3.5430 274° West 419 482 33,000 1,862 Climbing FlightAware ADS-B
Mon 09:14:17 AM 48.9070 -3.6590 274° West 418 481 33,000 -1,333 Level FlightAware ADS-B
Mon 09:14:49 AM 48.9039 -3.7537 274° West 458 527 31,400  Descending FlightAware UK
Mon 09:15:02 AM 48.9120 -3.7900 274° West 418 481 33,000  Climbing FlightAware ADS-B
Mon 09:15:19 AM 48.9076 -3.8418 274° West 456 525 31,400  Descending FlightAware UK
Mon 09:15:42 AM 48.9170 -3.9040 274° West 413 475 33,000  Climbing FlightAware ADS-B
Mon 09:16:00 AM 48.9126 -3.9641 274° West 452 520 31,400 -2,667 Descending FlightAware UK
Mon 09:16:18 AM 48.9148 -4.0160 274° West 450 518 31,400 3,556 Level FlightAware UK
Mon 09:16:27 AM 48.9230 -4.0390 274° West 408 470 33,000 1,959 Climbing FlightAware ADS-B
Mon 09:17:07 AM 48.9270 -4.1540 273° West 409 471 33,000 -1,684 Level FlightAware ADS-B
Mon 09:17:24 AM 48.9216 -4.2041 273° West 450 518 31,400  Descending FlightAware UK
Mon 09:17:47 AM 48.9320 -4.2690 273° West 413 475 33,000  Climbing FlightAware ADS-B
Mon 09:18:06 AM 48.9262 -4.3258 273° West 456 525 31,400 -2,595 Descending FlightAware UK
Mon 09:18:24 AM 48.9280 -4.3783 273° West 1 1 31,400 3,692 Level FlightAware UK
Mon 09:18:32 AM 48.9370 -4.3950 273° West 416 479 33,000  Climbing FlightAware ADS-B
Mon 09:18:48 AM 48.9303 -4.4484 273° West 1 1 31,400 -2,824 Descending FlightAware UK
Mon 09:19:06 AM 48.9323 -4.5012 273° West 456 525 31,400 4,000 Level FlightAware UK
Mon 09:19:12 AM 48.9410 -4.5120 273° West 418 481 33,000  Climbing FlightAware ADS-B
Mon 09:19:30 AM 48.9347 -4.5718 273° West 456 525 31,400 -2,667 Descending FlightAware UK
Mon 09:19:48 AM 48.9364 -4.6250 273° West 456 525 31,400 3,556 Level FlightAware UK
Mon 09:19:57 AM 48.9460 -4.6470 273° West 420 483 33,000  Climbing FlightAware ADS-B
Mon 09:20:18 AM 48.9394 -4.7139 273° West 458 527 31,400 -2,462 Descending FlightAware UK
Mon 09:20:36 AM 48.9412 -4.7673 273° West 458 527 31,400 5,053 Level FlightAware UK
Mon 09:20:37 AM 48.9500 -4.7640 273° West 422 486 33,000  Climbing FlightAware ADS-B
Mon 09:20:54 AM 48.9429 -4.8202 273° West 458 527 31,400 -2,743 Descending FlightAware UK
Mon 09:21:12 AM 48.9445 -4.8737 273° West 456 525 31,400 3,429 Level FlightAware UK
Mon 09:21:22 AM 48.9540 -4.8950 273° West 423 487 33,000  Climbing FlightAware ADS-B
Mon 09:21:42 AM 48.9471 -4.9630 273° West 456 525 31,400 -2,526 Descending FlightAware UK
Mon 09:22:00 AM 48.9489 -5.0165 273° West 454 522 31,400 4,800 Level FlightAware UK
Mon 09:22:02 AM 48.9590 -5.0150 273° West 424 488 33,000  Climbing FlightAware ADS-B
Mon 09:22:18 AM 48.9506 -5.0703 273° West 454 522 31,400 -2,824 Descending FlightAware UK
Mon 09:22:36 AM 48.9520 -5.1241 272° West 454 522 31,400 4,000 Level FlightAware UK
Mon 09:22:42 AM 48.9620 -5.1350 272° West 426 490 33,000  Climbing FlightAware ADS-B
Mon 09:23:00 AM 48.9542 -5.1959 272° West 454 522 31,400 -2,667 Descending FlightAware UK
Mon 09:23:18 AM 48.9557 -5.2498 272° West 454 522 31,400 3,556 Level FlightAware UK
Mon 09:23:27 AM 48.9660 -5.2730 272° West 427 491 33,000  Climbing FlightAware ADS-B
Mon 09:23:42 AM 48.9577 -5.3219 272° West 454 522 31,400 -2,909 Descending FlightAware UK
Mon 09:24:00 AM 48.9592 -5.3761 272° West 458 527 31,400 3,840 Level FlightAware UK
Mon 09:24:07 AM 48.9700 -5.3870 272° West 428 493 33,000  Climbing FlightAware ADS-B
Mon 09:24:24 AM 48.9611 -5.4484 272° West 456 525 31,400 -2,743 Descending FlightAware UK
Mon 09:24:42 AM 48.9624 -5.5028 272° West 456 525 31,400 3,429 Level FlightAware UK
Mon 09:24:52 AM 48.9740 -5.5270 272° West 429 494 33,000  Climbing FlightAware ADS-B
Mon 09:25:12 AM 48.9648 -5.5933 272° West 456 525 31,400 -2,526 Descending FlightAware UK
Mon 09:25:30 AM 48.9662 -5.6476 272° West 456 525 31,400 4,800 Level FlightAware UK
Mon 09:25:32 AM 48.9770 -5.6470 272° West 429 494 33,000  Climbing FlightAware ADS-B
Mon 09:25:48 AM 48.9674 -5.7019 272° West 456 525 31,400 -2,824 Descending FlightAware UK
Mon 09:26:06 AM 48.9687 -5.7563 272° West 456 525 31,400 4,000 Level FlightAware UK
Mon 09:26:12 AM 48.9810 -5.7670 272° West 430 495 33,000  Climbing FlightAware ADS-B
Mon 09:26:30 AM 48.9704 -5.8287 272° West 456 525 31,400 -2,667 Descending FlightAware UK
Mon 09:26:48 AM 48.9716 -5.8826 272° West 456 525 31,400 3,556 Level FlightAware UK
Mon 09:26:57 AM 48.9840 -5.8990 272° West 430 495 33,000  Climbing FlightAware ADS-B
Mon 09:27:12 AM 48.9732 -5.9551 272° West 452 520 31,400 -2,909 Descending FlightAware UK
Mon 09:27:30 AM 48.9744 -6.0096 272° West 454 522 31,400 3,840 Level FlightAware UK
Mon 09:27:37 AM 48.9870 -6.0200 272° West 430 495 33,000  Climbing FlightAware ADS-B
Mon 09:27:54 AM 48.9761 -6.0821 272° West 456 525 31,400 -2,743 Descending FlightAware UK
Mon 09:28:12 AM 48.9773 -6.1365 272° West 456 525 31,400  Level FlightAware UK
Mon 09:28:30 AM 48.9783 -6.1910 272° West 456 525 31,400 4,800 Level FlightAware UK
Mon 09:28:32 AM 48.9910 -6.1900 272° West 431 496 33,000  Climbing FlightAware ADS-B
Mon 09:28:54 AM 48.9797 -6.2637 272° West 456 525 31,400 -2,400 Descending FlightAware UK
Mon 09:29:12 AM 48.9807 -6.3183 272° West 454 522 31,400 4,174 Level FlightAware UK
Mon 09:29:17 AM 48.9940 -6.3270 272° West 431 496 33,000  Climbing FlightAware ADS-B
Mon 09:29:36 AM 48.9819 -6.3909 272° West 452 520 31,400 -2,595 Descending FlightAware UK
Mon 09:29:54 AM 48.9831 -6.4454 272° West 456 525 31,400 4,571 Level FlightAware UK
Mon 09:29:57 AM 48.9980 -6.4450 272° West 432 497 33,000  Climbing FlightAware ADS-B
Mon 09:30:12 AM 48.9859 -6.4999 272° West 454 522 31,400 -2,909 Descending FlightAware UK
Mon 09:30:30 AM 48.9887 -6.5544 275° West 454 522 31,400 3,840 Level FlightAware UK
Mon 09:30:37 AM 49.0030 -6.5640 275° West 431 496 33,000  Climbing FlightAware ADS-B
Mon 09:30:54 AM 48.9919 -6.6269 275° West 452 520 31,400 -2,743 Descending FlightAware UK
Mon 09:31:12 AM 48.9939 -6.6815 273° West 454 522 31,400 3,429 Level FlightAware UK
Mon 09:31:22 AM 49.0090 -6.7040 273° West 431 496 33,000  Climbing FlightAware ADS-B
Mon 09:31:42 AM 48.9972 -6.7723 273° West 456 525 31,400 -2,526 Descending FlightAware UK
Mon 09:32:00 AM 48.9991 -6.8268 273° West 454 522 31,400 4,800 Level FlightAware UK
Mon 09:32:02 AM 49.0140 -6.8210 273° West 431 496 33,000  Climbing FlightAware ADS-B
Mon 09:32:18 AM 49.0009 -6.8812 273° West 454 522 31,400 -2,824 Descending FlightAware UK
Mon 09:32:36 AM 49.0027 -6.9357 273° West 454 522 31,400 3,310 Level FlightAware UK
Mon 09:32:47 AM 49.0190 -6.9600 273° West 431 496 33,000  Climbing FlightAware ADS-B
Mon 09:33:06 AM 49.0057 -7.0259 273° West 450 518 31,400 -2,595 Descending FlightAware UK
Mon 09:33:24 AM 49.0075 -7.0803 273° West 452 520 31,400 4,571 Level FlightAware UK
Mon 09:33:27 AM 49.0230 -7.0800 273° West 431 496 33,000  Climbing FlightAware ADS-B
Mon 09:33:42 AM 49.0094 -7.1348 273° West 454 522 31,400 -2,909 Descending FlightAware UK
Mon 09:34:00 AM 49.0111 -7.1893 273° West 456 525 31,400 4,800 Level FlightAware UK
Mon 09:34:02 AM 49.0270 -7.1770 273° West 431 496 33,000  Climbing FlightAware ADS-B
Mon 09:34:18 AM 49.0128 -7.2438 273° West 454 522 31,400 -2,824 Descending FlightAware UK
Mon 09:34:36 AM 49.0146 -7.2984 273° West 452 520 31,400  Level FlightAware UK
Mon 09:34:54 AM 49.0163 -7.3530 273° West 450 518 31,400  Level FlightAware UK
Mon 09:35:12 AM 49.0180 -7.4076 273° West 452 520 31,400 4,174 Level FlightAware UK
Mon 09:35:17 AM 49.0350 -7.4020 273° West 432 497 33,000  Climbing FlightAware ADS-B
Mon 09:35:36 AM 49.0202 -7.4805 273° West 456 525 31,400 -2,595 Descending FlightAware UK
Mon 09:35:54 AM 49.0218 -7.5353 273° West 452 520 31,400  Level FlightAware UK
Mon 09:36:12 AM 49.0235 -7.5901 273° West 448 516 31,400  Level FlightAware UK
Mon 09:36:30 AM 49.0252 -7.6450 273° West 448 516 31,400 3,200 Level FlightAware UK
Mon 09:36:42 AM 49.0430 -7.6710 273° West 436 502 33,000  Climbing FlightAware ADS-B
Mon 09:37:00 AM 49.0277 -7.7368 273° West 448 516 31,400 -2,667 Descending FlightAware UK
Mon 09:37:18 AM 49.0292 -7.7920 272° West 450 518 31,400 3,556 Level FlightAware UK
Mon 09:37:27 AM 49.0470 -7.8010 272° West 437 503 33,000  Climbing FlightAware ADS-B
Mon 09:37:42 AM 49.0312 -7.8659 272° West 450 518 31,400 -2,909 Descending FlightAware UK
Mon 09:38:00 AM 49.0326 -7.9214 272° West 452 520 31,400 3,840 Level FlightAware UK
Mon 09:38:07 AM 49.0490 -7.9050 272° West 437 503 33,000  Climbing FlightAware ADS-B
Mon 09:38:24 AM 49.0345 -7.9956 272° West 452 520 31,400 -2,743 Descending FlightAware UK
Mon 09:38:42 AM 49.0358 -8.0507 272° West 452 520 31,400 4,174 Level FlightAware UK
Mon 09:38:47 AM 49.0510 -8.0100 272° West 437 503 33,000  Climbing FlightAware ADS-B
Mon 09:39:06 AM 49.0377 -8.1252 272° West 456 525 31,400 -2,595 Descending FlightAware UK
Mon 09:39:24 AM 49.0392 -8.1812 272° West 458 527 31,400 4,571 Level FlightAware UK
Mon 09:39:27 AM 49.0540 -8.1150 272° West 437 503 33,000  Climbing FlightAware ADS-B
Mon 09:39:42 AM 49.0405 -8.2372 272° West 454 522 31,400  Descending FlightAware UK
Mon 09:39:57 AM 49.0600 -8.2490 272° West 442 509 33,000  Climbing FlightAware ADS-B
Mon 09:40:12 AM 49.0426 -8.3304 272° West 454 522 31,400 -2,909 Descending FlightAware UK
Mon 09:40:30 AM 49.0437 -8.3863 272° West 454 522 31,400 3,840 Level FlightAware UK
Mon 09:40:37 AM 49.0630 -8.3750 272° West 442 509 33,000  Climbing FlightAware ADS-B
Mon 09:40:54 AM 49.0452 -8.4610 272° West 456 525 31,400 -2,743 Descending FlightAware UK
Mon 09:41:12 AM 49.0464 -8.5170 272° West 454 522 31,400 3,429 Level FlightAware UK
Mon 09:41:22 AM 49.0670 -8.5220 272° West 443 510 33,000  Climbing FlightAware ADS-B
Mon 09:41:42 AM 49.0483 -8.6104 272° West 456 525 31,400 -2,526 Descending FlightAware UK
Mon 09:42:00 AM 49.0496 -8.6664 272° West 456 525 31,400  Level FlightAware UK
Mon 09:42:18 AM 49.0507 -8.7225 272° West 454 522 31,400 3,000 Level FlightAware UK
Mon 09:42:32 AM 49.0710 -8.7480 272° West 443 510 33,000  Climbing FlightAware ADS-B
Mon 09:42:48 AM 49.0524 -8.8160 272° West 454 522 31,400 -2,824 Descending FlightAware UK
Mon 09:43:06 AM 49.0533 -8.8721 272° West 460 529 31,400  Level FlightAware UK
Mon 09:43:24 AM 49.0543 -8.9282 272° West 458 527 31,400 4,571 Level FlightAware UK
Mon 09:43:27 AM 49.0740 -8.9190 272° West 444 511 33,000  Climbing FlightAware ADS-B
Mon 09:43:42 AM 49.0552 -8.9843 272° West 456 525 31,400  Descending FlightAware UK
Mon 09:44:07 AM 49.0760 -9.0250 272° West 444 511 33,000 1,477 Climbing FlightAware ADS-B
Mon 09:44:47 AM 49.0770 -9.1320 271° West 444 511 33,000  Level FlightAware ADS-B
Mon 09:45:37 AM 49.0780 -9.2650 271° West 444 511 33,000  Level FlightAware ADS-B
Mon 09:46:17 AM 49.0800 -9.3720 272° West 444 511 33,000  Level FlightAware ADS-B
Mon 09:46:57 AM 49.0810 -9.4780 271° West 444 511 33,000  Level FlightAware ADS-B
Mon 09:47:37 AM 49.0820 -9.5850 271° West 444 511 33,000  Level FlightAware ADS-B
Mon 09:48:17 AM 49.0830 -9.6920 271° West 444 511 33,000  Level FlightAware ADS-B
Mon 09:49:07 AM 49.0850 -9.8250 271° West 444 511 33,000  Level FlightAware ADS-B
Mon 09:49:47 AM 49.0860 -9.9310 271° West 444 511 33,000  Level FlightAware ADS-B
Mon 09:50:27 AM 49.0870 -10.0380 271° West 444 511 33,000  Level FlightAware ADS-B
Mon 09:51:07 AM 49.0880 -10.1450 271° West 444 511 33,000  Level FlightAware ADS-B
Mon 09:51:47 AM 49.0890 -10.2510 271° West 444 511 33,000  Level FlightAware ADS-B
Mon 09:52:27 AM 49.0910 -10.3580 272° West 444 511 33,000  Level FlightAware ADS-B
Mon 09:55:00 AM 49.1612 -10.8164 283° West  Level Estimated
Mon 09:56:00 AM 49.1883 -10.9965 283° West  Level Estimated
Mon 09:57:00 AM 49.2151 -11.1768 283° West  Level Estimated
Mon 09:58:00 AM 49.2416 -11.3573 283° West  Level Estimated
Mon 09:59:00 AM 49.2678 -11.5379 283° West  Level Estimated
Mon 10:00:00 AM 49.2937 -11.7188 282° West  Level Estimated
Mon 10:01:00 AM 49.3193 -11.8999 282° West  Level Estimated
Mon 10:02:00 AM 49.3447 -12.0811 282° West  Level Estimated
Mon 10:03:00 AM 49.3698 -12.2626 282° West  Level Estimated
Mon 10:04:00 AM 49.3946 -12.4442 282° West  Level Estimated
Mon 10:05:00 AM 49.4191 -12.6260 282° West  Level Estimated
Mon 10:06:00 AM 49.4433 -12.8080 282° West  Level Estimated
Mon 10:07:00 AM 49.4672 -12.9901 281° West  Level Estimated
Mon 10:08:00 AM 49.4909 -13.1725 281° West  Level Estimated
Mon 10:09:00 AM 49.5142 -13.3550 281° West  Level Estimated
Mon 10:10:00 AM 49.5373 -13.5377 281° West  Level Estimated
Mon 10:11:00 AM 49.5601 -13.7205 281° West  Level Estimated
Mon 10:12:00 AM 49.5826 -13.9036 281° West  Level Estimated
Mon 10:13:00 AM 49.6048 -14.0868 281° West  Level Estimated
Mon 10:14:00 AM 49.6267 -14.2701 281° West  Level Estimated
Mon 10:15:00 AM 49.6484 -14.4536 280° West  Level Estimated
Mon 10:16:00 AM 49.6697 -14.6373 280° West  Level Estimated
Mon 10:17:00 AM 49.6907 -14.8206 280° West  Level Estimated
Mon 10:18:00 AM 49.7114 -15.0039 280° West  Level Estimated
Mon 10:19:00 AM 49.7318 -15.1875 280° West  Level Estimated
Mon 10:20:00 AM 49.7519 -15.3712 280° West  Level Estimated
Mon 10:21:00 AM 49.7717 -15.5550 280° West  Level Estimated
Mon 10:22:00 AM 49.7912 -15.7390 279° West  Level Estimated
Mon 10:23:00 AM 49.8105 -15.9231 279° West  Level Estimated
Mon 10:24:00 AM 49.8294 -16.1074 279° West  Level Estimated
Mon 10:25:00 AM 49.8481 -16.2918 279° West  Level Estimated
Mon 10:26:00 AM 49.8664 -16.4764 279° West  Level Estimated
Mon 10:27:00 AM 49.8845 -16.6611 279° West  Level Estimated
Mon 10:28:00 AM 49.9023 -16.8460 279° West  Level Estimated
Mon 10:29:00 AM 49.9198 -17.0310 278° West  Level Estimated
Mon 10:30:00 AM 49.9369 -17.2161 278° West  Level Estimated
Mon 10:31:00 AM 49.9538 -17.4013 278° West  Level Estimated
Mon 10:32:00 AM 49.9704 -17.5867 278° West  Level Estimated
Mon 10:33:00 AM 49.9867 -17.7722 278° West  Level Estimated
Mon 10:34:00 AM 50.0027 -17.9578 278° West  Level Estimated
Mon 10:35:00 AM 50.0184 -18.1436 278° West  Level Estimated
Mon 10:36:00 AM 50.0338 -18.3294 277° West  Level Estimated
Mon 10:37:00 AM 50.0490 -18.5154 277° West  Level Estimated
Mon 10:38:00 AM 50.0638 -18.7015 277° West  Level Estimated
Mon 10:39:00 AM 50.0783 -18.8877 277° West  Level Estimated
Mon 10:40:00 AM 50.0925 -19.0741 277° West  Level Estimated
Mon 10:41:00 AM 50.1064 -19.2605 277° West  Level Estimated
Mon 10:42:00 AM 50.1200 -19.4471 277° West  Level Estimated
Mon 10:43:00 AM 50.1334 -19.6337 276° West  Level Estimated
Mon 10:44:00 AM 50.1464 -19.8204 276° West  Level Estimated
Mon 10:45:00 AM 50.1591 -20.0073 276° West  Level Estimated
Mon 10:46:00 AM 50.1715 -20.1943 276° West  Level Estimated
Mon 10:47:00 AM 50.1837 -20.3813 276° West  Level Estimated
Mon 10:48:00 AM 50.1955 -20.5684 276° West  Level Estimated
Mon 10:49:00 AM 50.2070 -20.7557 276° West  Level Estimated
Mon 10:50:00 AM 50.2182 -20.9430 275° West  Level Estimated
Mon 10:51:00 AM 50.2291 -21.1304 275° West  Level Estimated
Mon 10:52:00 AM 50.2397 -21.3179 275° West  Level Estimated
Mon 10:53:00 AM 50.2501 -21.5055 275° West  Level Estimated
Mon 10:54:00 AM 50.2601 -21.6931 275° West  Level Estimated
Mon 10:55:00 AM 50.2698 -21.8809 275° West  Level Estimated
Mon 10:56:00 AM 50.2792 -22.0687 275° West  Level Estimated
Mon 10:57:00 AM 50.2883 -22.2565 274° West  Level Estimated
Mon 10:58:00 AM 50.2971 -22.4445 274° West  Level Estimated
Mon 10:59:00 AM 50.3056 -22.6325 274° West  Level Estimated
Mon 11:00:00 AM 50.3138 -22.8206 274° West  Level Estimated
Mon 11:01:00 AM 50.3217 -23.0088 274° West  Level Estimated
Mon 11:02:00 AM 50.3293 -23.1970 274° West  Level Estimated
Mon 11:03:00 AM 50.3366 -23.3852 274° West  Level Estimated
Mon 11:04:00 AM 50.3436 -23.5736 273° West  Level Estimated
Mon 11:05:00 AM 50.3503 -23.7619 273° West  Level Estimated
Mon 11:06:00 AM 50.3567 -23.9504 273° West  Level Estimated
Mon 11:07:00 AM 50.3627 -24.1389 273° West  Level Estimated
Mon 11:08:00 AM 50.3685 -24.3274 273° West  Level Estimated
Mon 11:09:00 AM 50.3740 -24.5160 273° West  Level Estimated
Mon 11:10:00 AM 50.3791 -24.7046 273° West  Level Estimated
Mon 11:11:00 AM 50.3840 -24.8932 272° West  Level Estimated
Mon 11:12:00 AM 50.3885 -25.0819 272° West  Level Estimated
Mon 11:13:00 AM 50.3927 -25.2707 272° West  Level Estimated
Mon 11:14:00 AM 50.3967 -25.4594 272° West  Level Estimated
Mon 11:15:00 AM 50.4003 -25.6482 272° West  Level Estimated
Mon 11:16:00 AM 50.4036 -25.8370 272° West  Level Estimated
Mon 11:17:00 AM 50.4067 -26.0259 272° West  Level Estimated
Mon 11:18:00 AM 50.4094 -26.2147 271° West  Level Estimated
Mon 11:19:00 AM 50.4118 -26.4036 271° West  Level Estimated
Mon 11:20:00 AM 50.4139 -26.5925 271° West  Level Estimated
Mon 11:21:00 AM 50.4157 -26.7815 271° West  Level Estimated
Mon 11:22:00 AM 50.4172 -26.9704 271° West  Level Estimated
Mon 11:23:00 AM 50.4184 -27.1593 271° West  Level Estimated
Mon 11:24:00 AM 50.4192 -27.3483 270° West  Level Estimated
Mon 11:25:00 AM 50.4198 -27.5373 270° West  Level Estimated
Mon 11:26:00 AM 50.4201 -27.7262 270° West  Level Estimated
Mon 11:27:00 AM 50.4200 -27.9152 270° West  Level Estimated
Mon 11:28:00 AM 50.4197 -28.1041 270° West  Level Estimated
Mon 11:29:00 AM 50.4190 -28.2931 270° West  Level Estimated
Mon 11:30:00 AM 50.4181 -28.4820 270° West  Level Estimated
Mon 11:31:00 AM 50.4168 -28.6710 269° West  Level Estimated
Mon 11:32:00 AM 50.4152 -28.8599 269° West  Level Estimated
Mon 11:33:00 AM 50.4134 -29.0488 269° West  Level Estimated
Mon 11:34:00 AM 50.4112 -29.2377 269° West  Level Estimated
Mon 11:35:00 AM 50.4087 -29.4266 269° West  Level Estimated
Mon 11:36:00 AM 50.4059 -29.6155 269° West  Level Estimated
Mon 11:37:00 AM 50.4028 -29.8043 269° West  Level Estimated
Mon 11:38:00 AM 50.3994 -29.9931 268° West  Level Estimated
Mon 11:39:00 AM 50.3957 -30.1819 268° West  Level Estimated
Mon 11:40:00 AM 50.3917 -30.3706 268° West  Level Estimated
Mon 11:41:00 AM 50.3873 -30.5594 268° West  Level Estimated
Mon 11:42:00 AM 50.3827 -30.7477 268° West  Level Estimated
Mon 11:43:00 AM 50.3778 -30.9361 268° West  Level Estimated
Mon 11:44:00 AM 50.3726 -31.1243 268° West  Level Estimated
Mon 11:45:00 AM 50.3670 -31.3126 267° West  Level Estimated
Mon 11:46:00 AM 50.3612 -31.5008 267° West  Level Estimated
Mon 11:47:00 AM 50.3551 -31.6889 267° West  Level Estimated
Mon 11:48:00 AM 50.3486 -31.8770 267° West  Level Estimated
Mon 11:49:00 AM 50.3419 -32.0651 267° West  Level Estimated
Mon 11:50:00 AM 50.3348 -32.2531 267° West  Level Estimated
Mon 11:51:00 AM 50.3275 -32.4410 267° West  Level Estimated
Mon 11:52:00 AM 50.3198 -32.6289 266° West  Level Estimated
Mon 11:53:00 AM 50.3119 -32.8167 266° West  Level Estimated
Mon 11:54:00 AM 50.3036 -33.0045 266° West  Level Estimated
Mon 11:55:00 AM 50.2951 -33.1922 266° West  Level Estimated
Mon 11:56:00 AM 50.2862 -33.3798 266° West  Level Estimated
Mon 11:57:00 AM 50.2770 -33.5673 266° West  Level Estimated
Mon 11:58:00 AM 50.2676 -33.7548 266° West  Level Estimated
Mon 11:59:00 AM 50.2578 -33.9422 265° West  Level Estimated
Mon 12:00:00 PM 50.2477 -34.1295 265° West  Level Estimated
Mon 12:01:00 PM 50.2373 -34.3168 265° West  Level Estimated
Mon 12:02:00 PM 50.2267 -34.5039 265° West  Level Estimated
Mon 12:03:00 PM 50.2157 -34.6910 265° West  Level Estimated
Mon 12:04:00 PM 50.2044 -34.8780 265° West  Level Estimated
Mon 12:05:00 PM 50.1929 -35.0649 265° West  Level Estimated
Mon 12:06:00 PM 50.1810 -35.2517 264° West  Level Estimated
Mon 12:07:00 PM 50.1688 -35.4384 264° West  Level Estimated
Mon 12:08:00 PM 50.1563 -35.6250 264° West  Level Estimated
Mon 12:09:00 PM 50.1436 -35.8115 264° West  Level Estimated
Mon 12:10:00 PM 50.1305 -35.9979 264° West  Level Estimated
Mon 12:11:00 PM 50.1171 -36.1842 264° West  Level Estimated
Mon 12:12:00 PM 50.1035 -36.3704 264° West  Level Estimated
Mon 12:13:00 PM 50.0895 -36.5565 263° West  Level Estimated
Mon 12:14:00 PM 50.0753 -36.7425 263° West  Level Estimated
Mon 12:15:00 PM 50.0607 -36.9284 263° West  Level Estimated
Mon 12:16:00 PM 50.0458 -37.1142 263° West  Level Estimated
Mon 12:17:00 PM 50.0307 -37.2998 263° West  Level Estimated
Mon 12:18:00 PM 50.0153 -37.4853 263° West  Level Estimated
Mon 12:19:00 PM 49.9995 -37.6707 263° West  Level Estimated
Mon 12:20:00 PM 49.9835 -37.8560 262° West  Level Estimated
Mon 12:21:00 PM 49.9672 -38.0412 262° West  Level Estimated
Mon 12:22:00 PM 49.9505 -38.2262 262° West  Level Estimated
Mon 12:23:00 PM 49.9336 -38.4111 262° West  Level Estimated
Mon 12:24:00 PM 49.9164 -38.5959 262° West  Level Estimated
Mon 12:25:00 PM 49.8989 -38.7805 262° West  Level Estimated
Mon 12:26:00 PM 49.8811 -38.9650 262° West  Level Estimated
Mon 12:27:00 PM 49.8630 -39.1494 261° West  Level Estimated
Mon 12:28:00 PM 49.8446 -39.3336 261° West  Level Estimated
Mon 12:29:00 PM 49.8259 -39.5177 261° West  Level Estimated
Mon 12:30:00 PM 49.8070 -39.7017 261° West  Level Estimated
Mon 12:31:00 PM 49.7877 -39.8855 261° West  Level Estimated
Mon 12:32:00 PM 49.7682 -40.0691 261° West  Level Estimated
Mon 12:33:00 PM 49.7483 -40.2526 261° West  Level Estimated
Mon 12:34:00 PM 49.7282 -40.4360 260° West  Level Estimated
Mon 12:35:00 PM 49.7078 -40.6192 260° West  Level Estimated
Mon 12:36:00 PM 49.6871 -40.8022 260° West  Level Estimated
Mon 12:37:00 PM 49.6661 -40.9851 260° West  Level Estimated
Mon 12:38:00 PM 49.6448 -41.1679 260° West  Level Estimated
Mon 12:39:00 PM 49.6232 -41.3504 260° West  Level Estimated
Mon 12:40:00 PM 49.6014 -41.5328 260° West  Level Estimated
Mon 12:40:30 PM 44.0000 -40.0000 266° West 455 524 33,000  Level New York Oceanic (ODAPS)
Mon 12:41:00 PM 49.5792 -41.7151 259° West  Level Estimated
Mon 12:42:00 PM 49.5568 -41.8971 259° West  Level Estimated
Mon 12:43:00 PM 49.5341 -42.0791 259° West  Level Estimated
Mon 12:44:00 PM 49.5111 -42.2608 259° West  Level Estimated
Mon 12:45:00 PM 49.4878 -42.4424 259° West  Level Estimated
Mon 12:46:00 PM 49.4642 -42.6237 259° West  Level Estimated
Mon 12:47:00 PM 43.9143 -41.3971 265° West 455 524 33,000  Level FlightAware Transoceanic
Mon 12:48:00 PM 43.9024 -41.5714 265° West 455 524 33,000  Level FlightAware Transoceanic
Mon 12:49:00 PM 43.8903 -41.7457 264° West 455 524 33,000  Level FlightAware Transoceanic
Mon 12:50:00 PM 43.8778 -41.9199 264° West 455 524 33,000  Level FlightAware Transoceanic
Mon 12:51:00 PM 43.8652 -42.0940 264° West 455 524 33,000  Level FlightAware Transoceanic
Mon 12:52:00 PM 43.8522 -42.2681 264° West 455 524 33,000  Level FlightAware Transoceanic
Mon 12:53:00 PM 43.8390 -42.4421 264° West 455 524 33,000  Level FlightAware Transoceanic
Mon 12:54:00 PM 43.8255 -42.6160 264° West 455 524 33,000  Level FlightAware Transoceanic
Mon 12:55:00 PM 43.8117 -42.7898 264° West 455 524 33,000  Level FlightAware Transoceanic
Mon 12:56:00 PM 43.7977 -42.9635 264° West 455 524 33,000  Level FlightAware Transoceanic
Mon 12:57:00 PM 43.7834 -43.1372 263° West 455 524 33,000  Level FlightAware Transoceanic
Mon 12:58:00 PM 43.7689 -43.3107 263° West 455 524 33,000  Level FlightAware Transoceanic
Mon 12:59:00 PM 43.7541 -43.4842 263° West 455 524 33,000  Level FlightAware Transoceanic
Mon 01:00:00 PM 43.7390 -43.6576 263° West 455 524 33,000  Level FlightAware Transoceanic
Mon 01:01:00 PM 43.7237 -43.8309 263° West 455 524 33,000  Level FlightAware Transoceanic
Mon 01:02:00 PM 43.7081 -44.0041 263° West 455 524 33,000  Level FlightAware Transoceanic
Mon 01:03:00 PM 43.6922 -44.1773 263° West 455 524 33,000  Level FlightAware Transoceanic
Mon 01:04:00 PM 43.6761 -44.3503 263° West 455 524 33,000  Level FlightAware Transoceanic
Mon 01:05:00 PM 43.6598 -44.5233 262° West 455 524 33,000  Level FlightAware Transoceanic
Mon 01:06:00 PM 43.6431 -44.6961 262° West 455 524 33,000  Level FlightAware Transoceanic
Mon 01:07:00 PM 43.6262 -44.8689 262° West 455 524 33,000  Level FlightAware Transoceanic
Mon 01:08:00 PM 43.6091 -45.0415 262° West 455 524 33,000  Level FlightAware Transoceanic
Mon 01:09:00 PM 43.5917 -45.2141 262° West 455 524 33,000  Level FlightAware Transoceanic
Mon 01:10:00 PM 43.5740 -45.3865 262° West 455 524 33,000  Level FlightAware Transoceanic
Mon 01:11:00 PM 43.5561 -45.5589 262° West 455 524 33,000  Level FlightAware Transoceanic
Mon 01:12:00 PM 43.5379 -45.7311 262° West 455 524 33,000  Level FlightAware Transoceanic
Mon 01:13:00 PM 43.5194 -45.9033 262° West 455 524 33,000  Level FlightAware Transoceanic
Mon 01:14:00 PM 43.5007 -46.0753 261° West 455 524 33,000  Level FlightAware Transoceanic
Mon 01:15:00 PM 43.4817 -46.2472 261° West 455 524 33,000  Level FlightAware Transoceanic
Mon 01:15:00 PM 43.5000 -46.1000 261° West 450 518 33,000  Level New York Oceanic (ODAPS)
Mon 01:16:00 PM 43.4625 -46.4191 261° West 455 524 33,000  Level FlightAware Transoceanic
Mon 01:17:00 PM 43.4430 -46.5908 261° West 455 524 33,000  Level FlightAware Transoceanic
Mon 01:18:00 PM 43.4233 -46.7624 261° West 455 524 33,000  Level FlightAware Transoceanic
Mon 01:19:00 PM 43.4033 -46.9339 261° West 455 524 33,000  Level FlightAware Transoceanic
Mon 01:20:00 PM 43.3831 -47.1053 261° West 455 524 33,000  Level FlightAware Transoceanic
Mon 01:21:00 PM 43.3679 -47.2440 261° West 450 518 33,000  Level FlightAware Transoceanic
Mon 01:22:00 PM 43.3481 -47.4070 260° West 450 518 33,000  Level FlightAware Transoceanic
Mon 01:23:00 PM 43.3280 -47.5699 260° West 450 518 33,000  Level FlightAware Transoceanic
Mon 01:24:00 PM 43.3078 -47.7327 260° West 450 518 33,000  Level FlightAware Transoceanic
Mon 01:25:00 PM 43.2873 -47.8954 260° West 450 518 33,000  Level FlightAware Transoceanic
Mon 01:26:00 PM 43.2666 -48.0580 260° West 450 518 33,000  Level FlightAware Transoceanic
Mon 01:27:00 PM 43.2456 -48.2205 260° West 450 518 33,000  Level FlightAware Transoceanic
Mon 01:28:00 PM 43.2244 -48.3828 260° West 450 518 33,000  Level FlightAware Transoceanic
Mon 01:29:00 PM 43.2030 -48.5451 260° West 450 518 33,000  Level FlightAware Transoceanic
Mon 01:30:00 PM 43.1814 -48.7072 260° West 450 518 33,000  Level FlightAware Transoceanic
Mon 01:31:00 PM 43.1595 -48.8692 259° West 450 518 33,000  Level FlightAware Transoceanic
Mon 01:32:00 PM 43.1374 -49.0311 259° West 450 518 33,000  Level FlightAware Transoceanic
Mon 01:33:00 PM 43.1151 -49.1929 259° West 450 518 33,000  Level FlightAware Transoceanic
Mon 01:34:00 PM 43.0925 -49.3546 259° West 450 518 33,000  Level FlightAware Transoceanic
Mon 01:35:00 PM 43.0697 -49.5161 259° West 450 518 33,000  Level FlightAware Transoceanic
Mon 01:36:00 PM 43.0467 -49.6775 259° West 450 518 33,000  Level FlightAware Transoceanic
Mon 01:37:00 PM 43.0235 -49.8388 259° West 450 518 33,000  Level FlightAware Transoceanic
Mon 01:38:00 PM 43.0000 -50.0000 266° West 450 518 33,000  Level FlightAware Transoceanic
Mon 01:38:10 PM 43.0000 -50.0000 266° West 451 519 33,000  Level New York Oceanic (ODAPS)
Mon 01:39:00 PM 42.9902 -50.1748 266° West 450 518 33,000  Level FlightAware Transoceanic
Mon 01:40:00 PM 42.9801 -50.3495 265° West 450 518 33,000  Level FlightAware Transoceanic
Mon 01:41:00 PM 42.9698 -50.5241 265° West 450 518 33,000  Level FlightAware Transoceanic
Mon 01:42:00 PM 42.9592 -50.6987 265° West 450 518 33,000  Level FlightAware Transoceanic
Mon 01:42:30 PM 42.9500 -50.7833 265° West 451 519 33,000  Level New York Oceanic (ODAPS)
Mon 01:43:00 PM 42.9484 -50.8733 265° West 450 518 33,000  Level FlightAware Transoceanic
Mon 01:44:00 PM 42.9384 -51.0300 265° West 451 519 33,000  Level FlightAware Transoceanic
Mon 01:45:00 PM 42.9272 -51.2015 265° West 451 519 33,000  Level FlightAware Transoceanic
Mon 01:46:00 PM 42.9158 -51.3728 265° West 451 519 33,000  Level FlightAware Transoceanic
Mon 01:47:00 PM 42.9041 -51.5442 265° West 451 519 33,000  Level FlightAware Transoceanic
Mon 01:48:00 PM 42.8922 -51.7154 265° West 451 519 33,000  Level FlightAware Transoceanic
Mon 01:49:00 PM 42.8704 -51.9705 264° West 451 519 33,000  Level FlightAware Transoceanic
Mon 01:50:00 PM 42.8581 -52.1399 264° West 451 519 33,000  Level FlightAware Transoceanic
Mon 01:51:00 PM 42.8455 -52.3091 264° West 451 519 33,000  Level FlightAware Transoceanic
Mon 01:52:00 PM 42.8326 -52.4783 264° West 451 519 33,000  Level FlightAware Transoceanic
Mon 01:53:00 PM 42.8195 -52.6475 264° West 451 519 33,000  Level FlightAware Transoceanic
Mon 01:54:00 PM 42.8061 -52.8165 264° West 451 519 33,000  Level FlightAware Transoceanic
Mon 01:55:00 PM 42.7925 -52.9855 264° West 451 519 33,000  Level FlightAware Transoceanic
Mon 01:56:00 PM 42.7787 -53.1544 264° West 451 519 33,000  Level FlightAware Transoceanic
Mon 01:56:32 PM 42.7833 -53.1333 264° West 451 519 33,000  Level New York Oceanic (ODAPS)
Mon 01:57:00 PM 42.7646 -53.3232 263° West 451 519 33,000  Level FlightAware Transoceanic
Mon 01:58:00 PM 42.7502 -53.4920 263° West 451 519 33,000  Level FlightAware Transoceanic
Mon 01:59:00 PM 42.7356 -53.6607 263° West 451 519 33,000  Level FlightAware Transoceanic
Mon 02:00:00 PM 42.7208 -53.8293 263° West 451 519 33,000  Level FlightAware Transoceanic
Mon 02:01:00 PM 42.7057 -53.9978 263° West 451 519 33,000  Level FlightAware Transoceanic
Mon 02:02:00 PM 42.6903 -54.1662 263° West 451 519 33,000  Level FlightAware Transoceanic
Mon 02:03:00 PM 42.6788 -54.3172 263° West 451 519 33,000  Level FlightAware Transoceanic
Mon 02:04:00 PM 42.6628 -54.4860 263° West 451 519 33,000  Level FlightAware Transoceanic
Mon 02:05:00 PM 42.6467 -54.6547 263° West 451 519 33,000  Level FlightAware Transoceanic
Mon 02:06:00 PM 42.6302 -54.8233 262° West 451 519 33,000  Level FlightAware Transoceanic
Mon 02:07:00 PM 42.6136 -54.9918 262° West 451 519 33,000  Level FlightAware Transoceanic
Mon 02:08:00 PM 42.5967 -55.1603 262° West 451 519 33,000  Level FlightAware Transoceanic
Mon 02:09:00 PM 42.5795 -55.3286 262° West 451 519 33,000  Level FlightAware Transoceanic
Mon 02:10:00 PM 42.5621 -55.4969 262° West 451 519 33,000  Level FlightAware Transoceanic
Mon 02:10:16 PM 42.5667 -55.4667 262° West 449 517 33,000  Level New York Oceanic (ODAPS)
Mon 02:11:00 PM 42.5444 -55.6650 262° West 451 519 33,000  Level FlightAware Transoceanic
Mon 02:12:00 PM 42.5265 -55.8331 262° West 451 519 33,000  Level FlightAware Transoceanic
Mon 02:13:00 PM 42.5084 -56.0010 262° West 451 519 33,000  Level FlightAware Transoceanic
Mon 02:14:00 PM 42.4900 -56.1689 261° West 451 519 33,000  Level FlightAware Transoceanic
Mon 02:15:00 PM 42.4713 -56.3367 261° West 451 519 33,000  Level FlightAware Transoceanic
Mon 02:16:00 PM 42.4524 -56.5043 261° West 451 519 33,000  Level FlightAware Transoceanic
Mon 02:17:00 PM 42.4370 -56.6496 261° West 449 517 33,000  Level FlightAware Transoceanic
Mon 02:18:00 PM 42.4174 -56.8182 261° West 449 517 33,000  Level FlightAware Transoceanic
Mon 02:19:00 PM 42.3977 -56.9867 261° West 449 517 33,000  Level FlightAware Transoceanic
Mon 02:20:00 PM 42.3777 -57.1551 261° West 449 517 33,000  Level FlightAware Transoceanic
Mon 02:21:00 PM 42.3574 -57.3233 261° West 449 517 33,000  Level FlightAware Transoceanic
Mon 02:22:00 PM 42.3369 -57.4915 261° West 449 517 33,000  Level FlightAware Transoceanic
Mon 02:23:00 PM 42.3161 -57.6595 260° West 449 517 33,000  Level FlightAware Transoceanic
Mon 02:24:00 PM 42.2951 -57.8275 260° West 449 517 33,000  Level FlightAware Transoceanic
Mon 02:24:23 PM 42.3000 -57.8000 260° West 453 521 33,000  Level New York Oceanic (ODAPS)
Mon 02:25:00 PM 42.2739 -57.9953 260° West 449 517 33,000  Level FlightAware Transoceanic
Mon 02:26:00 PM 42.2524 -58.1630 260° West 449 517 33,000  Level FlightAware Transoceanic
Mon 02:27:00 PM 42.2307 -58.3306 260° West 449 517 33,000  Level FlightAware Transoceanic
Mon 02:28:00 PM 42.2087 -58.4981 260° West 449 517 33,000  Level FlightAware Transoceanic
Mon 02:29:00 PM 42.1865 -58.6655 260° West 449 517 33,000  Level FlightAware Transoceanic
Mon 02:30:00 PM 42.1668 -58.8180 260° West 453 521 33,000  Level FlightAware Transoceanic
Mon 02:31:00 PM 42.1437 -58.9872 260° West 453 521 33,000  Level FlightAware Transoceanic
Mon 02:32:00 PM 42.1203 -59.1563 259° West 453 521 33,000  Level FlightAware Transoceanic
Mon 02:33:00 PM 42.0968 -59.3253 259° West 453 521 33,000  Level FlightAware Transoceanic
Mon 02:34:00 PM 42.0729 -59.4942 259° West 453 521 33,000  Level FlightAware Transoceanic
Mon 02:35:00 PM 42.0489 -59.6629 259° West 453 521 33,000  Level FlightAware Transoceanic
Mon 02:36:00 PM 42.0246 -59.8315 259° West 453 521 33,000  Level FlightAware Transoceanic
Mon 02:37:00 PM 42.0000 -60.0000 263° West 453 521 33,000  Level FlightAware Transoceanic
Mon 02:37:28 PM 42.0000 -60.0000 263° West 448 516 33,000  Level New York Oceanic (ODAPS)
Mon 02:38:00 PM 41.9840 -60.1687 263° West 453 521 33,000  Level FlightAware Transoceanic
Mon 02:39:00 PM 41.9677 -60.3374 263° West 453 521 33,000  Level FlightAware Transoceanic
Mon 02:40:00 PM 41.9511 -60.5060 262° West 453 521 33,000  Level FlightAware Transoceanic
Mon 02:41:00 PM 41.9343 -60.6744 262° West 453 521 33,000  Level FlightAware Transoceanic
Mon 02:42:00 PM 41.9173 -60.8428 262° West 453 521 33,000  Level FlightAware Transoceanic
Mon 02:43:00 PM 41.9000 -61.0111 262° West 453 521 33,000  Level FlightAware Transoceanic
Mon 02:44:00 PM 41.8853 -61.1520 262° West 448 516 33,000  Level FlightAware Transoceanic
Mon 02:45:00 PM 41.8680 -61.3162 262° West 448 516 33,000  Level FlightAware Transoceanic
Mon 02:46:00 PM 41.8505 -61.4803 262° West 448 516 33,000  Level FlightAware Transoceanic
Mon 02:47:00 PM 41.8327 -61.6443 262° West 448 516 33,000  Level FlightAware Transoceanic
Mon 02:48:00 PM 41.8147 -61.8083 262° West 448 516 33,000  Level FlightAware Transoceanic
Mon 02:49:00 PM 41.7964 -61.9721 261° West 448 516 33,000  Level FlightAware Transoceanic
Mon 02:50:00 PM 41.7779 -62.1359 261° West 448 516 33,000  Level FlightAware Transoceanic
Mon 02:51:00 PM 41.7592 -62.2996 261° West 448 516 33,000  Level FlightAware Transoceanic
Mon 02:51:49 PM 41.7333 -62.4667 261° West 450 518 33,000  Level New York Oceanic (ODAPS)
Mon 02:52:00 PM 41.7402 -62.4632 261° West 448 516 33,000  Level FlightAware Transoceanic
Mon 02:53:00 PM 41.7211 -62.6266 261° West 448 516 33,000  Level FlightAware Transoceanic
Mon 02:54:00 PM 41.7016 -62.7900 261° West 448 516 33,000  Level FlightAware Transoceanic
Mon 02:55:00 PM 41.6820 -62.9533 261° West 448 516 33,000  Level FlightAware Transoceanic
Mon 02:56:00 PM 41.6621 -63.1165 261° West 448 516 33,000  Level FlightAware Transoceanic
Mon 02:57:00 PM 41.6420 -63.2795 261° West 448 516 33,000  Level FlightAware Transoceanic
Mon 02:58:00 PM 41.6117 -63.4813 261° West 450 518 33,000  Level FlightAware Transoceanic
Mon 02:59:00 PM 41.5906 -63.6501 260° West 450 518 33,000  Level FlightAware Transoceanic
Mon 03:00:00 PM 41.5692 -63.8187 260° West 450 518 33,000  Level FlightAware Transoceanic
Mon 03:01:00 PM 41.5476 -63.9872 260° West 450 518 33,000  Level FlightAware Transoceanic
Mon 03:02:00 PM 41.5257 -64.1556 260° West 450 518 33,000  Level FlightAware Transoceanic
Mon 03:03:00 PM 41.5036 -64.3239 260° West 450 518 33,000  Level FlightAware Transoceanic
Mon 03:04:00 PM 41.4813 -64.4921 260° West 450 518 33,000  Level FlightAware Transoceanic
Mon 03:05:00 PM 41.4586 -64.6601 260° West 450 518 33,000  Level FlightAware Transoceanic
Mon 03:05:44 PM 41.4500 -64.7500 260° West 441 507 33,000  Level New York Oceanic (ODAPS)
Mon 03:06:00 PM 41.4358 -64.8280 260° West 450 518 33,000  Level FlightAware Transoceanic
Mon 03:07:00 PM 41.4127 -64.9959 260° West 450 518 33,000  Level FlightAware Transoceanic
Mon 03:08:00 PM 41.3894 -65.1636 259° West 450 518 33,000  Level FlightAware Transoceanic
Mon 03:09:00 PM 41.3658 -65.3311 259° West 450 518 33,000  Level FlightAware Transoceanic
Mon 03:10:00 PM 41.3419 -65.4986 259° West 450 518 33,000  Level FlightAware Transoceanic
Mon 03:11:00 PM 41.3179 -65.6659 259° West 450 518 33,000  Level FlightAware Transoceanic
Mon 03:12:00 PM 41.2999 -65.8029 259° West 441 507 33,000  Level FlightAware Transoceanic
Mon 03:13:00 PM 41.2777 -65.9529 259° West 441 507 33,000  Level FlightAware Transoceanic
Mon 03:14:00 PM 41.2552 -66.1028 259° West 441 507 33,000  Level FlightAware Transoceanic
Mon 03:15:00 PM 41.2326 -66.2526 259° West 441 507 33,000  Level FlightAware Transoceanic
Mon 03:16:00 PM 41.2098 -66.4023 258° West 441 507 33,000  Level FlightAware Transoceanic
Mon 03:17:00 PM 41.1868 -66.5519 258° West 441 507 33,000  Level FlightAware Transoceanic
Mon 03:18:00 PM 41.1636 -66.7013 258° West 441 507 33,000  Level FlightAware Transoceanic
Mon 03:19:00 PM 41.1403 -66.8507 258° West 441 507 33,000  Level FlightAware Transoceanic
Mon 03:20:00 PM 41.1167 -67.0000 276° West 441 507 33,000 1,481 Level FlightAware Transoceanic
Mon 03:20:17 PM 41.1217 -67.0794 276° West 439 505 34,900  Climbing New York Center
Mon 03:21:00 PM 41.1306 -67.1798 276° West 441 507 33,000 392 Descending FlightAware Transoceanic
Mon 03:22:00 PM 41.1433 -67.3526 276° West  Level FlightAware Approximate
Mon 03:22:50 PM 41.1514 -67.4881 276° West 437 503 35,900  Level Boston Center
Mon 03:23:50 PM 41.1647 -67.6472 276° West 437 503 35,900 -2,486 Level Boston Center
Mon 03:24:00 PM 41.1706 -67.7199 275° West 441 507 33,000  Descending FlightAware Transoceanic
Mon 03:24:50 PM 41.1775 -67.8033 276° West 437 503 35,900 1,582 Climbing Boston Center
Mon 03:25:00 PM 41.1830 -67.8791 276° West  Level FlightAware Approximate
Mon 03:25:50 PM 41.1858 -67.9603 274° West 437 503 35,900  Level Boston Center
Mon 03:26:50 PM 41.1942 -68.1197 274° West 437 503 35,900  Level Boston Center
Mon 03:28:00 PM 41.1993 -68.3064 272° West  Level FlightAware Approximate
Mon 03:32:00 PM 41.2244 -68.8695 274° West  Level FlightAware Approximate
Mon 03:32:50 PM 41.2417 -69.0831 274° West 437 503 35,900  Level Boston Center
Mon 03:33:50 PM 41.2483 -69.2428 273° West 437 503 35,900  Level Boston Center
Mon 03:34:50 PM 41.2550 -69.4056 273° West 437 503 35,900  Level Boston Center
Mon 03:35:00 PM 41.2472 -69.4261 274° West  Level FlightAware Approximate
Mon 03:36:00 PM 41.2532 -69.5929 273° West  Level FlightAware Approximate
Mon 03:36:50 PM 41.2633 -69.7364 273° West 432 497 35,900  Level Boston Center
Mon 03:42:27 PM 41.2250 -70.5910 273° West 444 511 36,000 15 Climbing FlightAware ADS-B
Mon 03:43:22 PM 41.2030 -70.7300 258° West 443 510 36,000  Level FlightAware ADS-B
Mon 03:44:02 PM 41.1860 -70.8370 258° West 443 510 36,000  Level FlightAware ADS-B
Mon 03:44:52 PM 41.1640 -70.9740 258° West 440 506 36,000  Level FlightAware ADS-B
Mon 03:45:32 PM 41.1470 -71.0810 258° West 439 505 36,000  Level FlightAware ADS-B
Mon 03:46:12 PM 41.1280 -71.1930 257° West 439 505 36,000  Level FlightAware ADS-B
Mon 03:46:52 PM 41.1120 -71.2930 258° West 438 504 36,000  Level FlightAware ADS-B
Mon 03:47:37 PM 41.0930 -71.4100 258° West 438 504 36,000  Level FlightAware ADS-B
Mon 03:48:17 PM 41.0750 -71.5200 258° West 438 504 36,000  Level FlightAware ADS-B
Mon 03:49:02 PM 41.0550 -71.6390 257° West 438 504 36,000  Level FlightAware ADS-B
Mon 03:49:42 PM 41.0380 -71.7370 257° West 438 504 36,000  Level FlightAware ADS-B
Mon 03:50:27 PM 41.0180 -71.8580 258° West 439 505 36,000  Level FlightAware ADS-B
Mon 03:51:07 PM 41.0000 -71.9650 257° West 440 506 36,000  Level FlightAware ADS-B
Mon 03:51:52 PM 40.9790 -72.0830 257° West 441 507 36,000  Level FlightAware ADS-B
Mon 03:52:04 PM 40.9733 -72.1174 258° West 441 507 36,000  Level FlightAware ADS-B
Mon 03:52:35 PM 40.9588 -72.2004 257° West 441 507 36,000  Level FlightAware ADS-B
Mon 03:52:52 PM 40.9508 -72.2455 257° West 442 509 36,000  Level FlightAware ADS-B
Mon 03:53:25 PM 40.9296 -72.3288 251° West 442 509 36,000  Level FlightAware ADS-B
Mon 03:53:56 PM 40.9054 -72.4061 248° West 442 509 36,000  Level FlightAware ADS-B
Mon 03:54:27 PM 40.8805 -72.4824 247° West 442 509 36,000  Level FlightAware ADS-B
Mon 03:55:04 PM 40.8506 -72.5741 247° West 443 510 36,000  Level FlightAware ADS-B
Mon 03:55:36 PM 40.8249 -72.6531 247° West 443 510 36,000  Level FlightAware ADS-B
Mon 03:56:11 PM 40.7964 -72.7402 247° West 444 511 36,000  Level FlightAware ADS-B
Mon 03:56:42 PM 40.7710 -72.8184 247° West 444 511 36,000  Level FlightAware ADS-B
Mon 03:57:12 PM 40.7464 -72.8930 246° West 444 511 36,000  Level FlightAware ADS-B
Mon 03:57:43 PM 40.7215 -72.9688 247° West 444 511 36,000  Level FlightAware ADS-B
Mon 03:58:17 PM 40.6940 -73.0524 247° West 443 510 36,000  Level FlightAware ADS-B
Mon 03:58:49 PM 40.6677 -73.1317 246° West 443 510 36,000  Level FlightAware ADS-B
Mon 03:59:22 PM 40.6407 -73.2132 246° West 442 509 36,000  Level FlightAware ADS-B
Mon 03:59:52 PM 40.6160 -73.2871 246° West 442 509 36,000  Level FlightAware ADS-B
Mon 04:00:24 PM 40.5897 -73.3660 246° West 441 507 36,000  Level FlightAware ADS-B
Mon 04:00:54 PM 40.5648 -73.4402 246° West 441 507 36,000  Level FlightAware ADS-B
Mon 04:01:32 PM 40.5336 -73.5337 246° West 441 507 36,000  Level FlightAware ADS-B
Mon 04:02:08 PM 40.5041 -73.6207 246° West 441 507 36,000  Level FlightAware ADS-B
Mon 04:02:39 PM 40.4789 -73.6955 246° West 441 507 36,000  Level FlightAware ADS-B
Mon 04:03:16 PM 40.4479 -73.7871 246° West 441 507 36,000  Level FlightAware ADS-B
Mon 04:03:48 PM 40.4279 -73.8659 252° West 440 506 36,000  Level FlightAware ADS-B
Mon 04:04:08 PM 40.4185 -73.9186 257° West 440 506 36,000  Level FlightAware ADS-B
Mon 04:04:38 PM 40.4056 -73.9965 258° West 439 505 36,000  Level FlightAware ADS-B
Mon 04:05:08 PM 40.3926 -74.0751 258° West 439 505 36,000  Level FlightAware ADS-B
Mon 04:05:39 PM 40.3793 -74.1558 258° West 440 506 36,000  Level FlightAware ADS-B
Mon 04:06:12 PM 40.3655 -74.2412 258° West 438 504 36,000  Level FlightAware ADS-B
Mon 04:06:45 PM 40.3518 -74.3256 258° West 439 505 36,000  Level FlightAware ADS-B
Mon 04:07:17 PM 40.3381 -74.4104 258° West 438 504 36,000  Level FlightAware ADS-B
Mon 04:07:48 PM 40.3249 -74.4905 258° West 438 504 36,000  Level FlightAware ADS-B
Mon 04:08:19 PM 40.3118 -74.5695 258° West 437 503 36,000  Level FlightAware ADS-B
Mon 04:08:51 PM 40.2977 -74.6529 258° West 438 504 36,000  Level FlightAware ADS-B
Mon 04:09:23 PM 40.2839 -74.7346 258° West 438 504 36,000  Level FlightAware ADS-B
Mon 04:10:01 PM 40.2674 -74.8317 257° West 439 505 36,000  Level FlightAware ADS-B
Mon 04:10:33 PM 40.2530 -74.9166 257° West 440 506 36,000  Level FlightAware ADS-B
Mon 04:11:04 PM 40.2393 -74.9967 257° West 441 507 36,000  Level FlightAware ADS-B
Mon 04:11:36 PM 40.2254 -75.0788 258° West 441 507 36,000  Level FlightAware ADS-B
Mon 04:12:08 PM 40.2110 -75.1636 257° West 442 509 36,000  Level FlightAware ADS-B
Mon 04:12:41 PM 40.1962 -75.2492 257° West 442 509 36,000  Level FlightAware ADS-B
Mon 04:13:12 PM 40.1824 -75.3286 257° West 441 507 36,000  Level FlightAware ADS-B
Mon 04:13:44 PM 40.1682 -75.4110 257° West 441 507 36,000  Level FlightAware ADS-B
Mon 04:14:12 PM 40.1552 -75.4844 257° West 440 506 36,000  Level FlightAware ADS-B
Mon 04:14:18 PM 40.1511 -75.4999 251° West 439 505 36,000 -462 Level FlightAware ADS-B
Mon 04:14:25 PM 40.1455 -75.5149 244° Southwest 438 504 35,900  Descending FlightAware ADS-B
Mon 04:14:55 PM 40.1148 -75.5829 239° Southwest 437 503 36,000 98 Climbing FlightAware ADS-B
Mon 04:15:26 PM 40.0849 -75.6548 241° Southwest 437 503 36,000  Level FlightAware ADS-B
Mon 04:15:56 PM 40.0572 -75.7255 243° Southwest 437 503 36,000  Level FlightAware ADS-B
Mon 04:16:31 PM 40.0227 -75.8057 241° Southwest 435 501 36,000  Level FlightAware ADS-B
Mon 04:17:02 PM 39.9912 -75.8768 240° Southwest 435 501 36,000  Level FlightAware ADS-B
Mon 04:17:33 PM 39.9600 -75.9467 240° Southwest 436 502 36,000  Level FlightAware ADS-B
Mon 04:18:04 PM 39.9287 -76.0163 240° Southwest 437 503 36,000  Level FlightAware ADS-B
Mon 04:18:37 PM 39.8948 -76.0908 239° Southwest 437 503 36,000  Level FlightAware ADS-B
Mon 04:19:07 PM 39.8638 -76.1596 240° Southwest 438 504 36,000  Level FlightAware ADS-B
Mon 04:19:37 PM 39.8330 -76.2274 239° Southwest 438 504 36,000  Level FlightAware ADS-B
Mon 04:20:08 PM 39.8016 -76.2964 239° Southwest 438 504 36,000  Level FlightAware ADS-B
Mon 04:20:41 PM 39.7680 -76.3700 239° Southwest 438 504 36,000  Level FlightAware ADS-B
Mon 04:21:13 PM 39.7339 -76.4442 239° Southwest 439 505 36,000  Level FlightAware ADS-B
Mon 04:21:44 PM 39.7019 -76.5140 239° Southwest 439 505 36,000  Level FlightAware ADS-B
Mon 04:22:15 PM 39.6704 -76.5829 239° Southwest 439 505 36,000  Level FlightAware ADS-B
Mon 04:22:45 PM 39.6386 -76.6520 239° Southwest 439 505 36,000  Level FlightAware ADS-B
Mon 04:23:19 PM 39.6034 -76.7286 239° Southwest 439 505 36,000  Level FlightAware ADS-B
Mon 04:23:51 PM 39.5707 -76.7994 239° Southwest 438 504 36,000  Level FlightAware ADS-B
Mon 04:24:22 PM 39.5389 -76.8684 239° Southwest 436 502 36,000  Level FlightAware ADS-B
Mon 04:24:28 PM 39.5320 -76.8829 238° Southwest 435 501 36,000  Level FlightAware ADS-B
Mon 04:24:48 PM 39.5078 -76.9230 232° Southwest 430 495 36,000  Level FlightAware ADS-B
Mon 04:24:56 PM 39.4964 -76.9374 224° Southwest 429 494 36,000  Level FlightAware ADS-B
Mon 04:25:32 PM 39.4406 -76.9959 219° Southwest 428 493 36,000  Level FlightAware ADS-B
Mon 04:26:05 PM 39.3920 -77.0519 222° Southwest 427 491 36,000 -375 Level FlightAware ADS-B
Mon 04:26:36 PM 39.3455 -77.1025 220° Southwest 424 488 35,600 -1,200 Descending FlightAware ADS-B
Mon 04:27:15 PM 39.2854 -77.1650 219° Southwest 430 495 34,600 -1,315 Descending FlightAware ADS-B
Mon 04:27:49 PM 39.2334 -77.2184 219° Southwest 434 499 34,000 -545 Descending FlightAware ADS-B
Mon 04:28:21 PM 39.1829 -77.2701 218° Southwest 436 502 34,000  Level FlightAware ADS-B
Mon 04:28:57 PM 39.1249 -77.3298 219° Southwest 438 504 34,000  Level FlightAware ADS-B
Mon 04:29:37 PM 39.0670 -77.3900 219° Southwest 439 505 34,000  Level FlightAware ADS-B
Mon 04:29:57 PM 39.0307 -77.4272 219° Southwest 439 505 34,000  Level FlightAware ADS-B
Mon 04:30:38 PM 38.9659 -77.4940 219° Southwest 435 501 34,000  Level FlightAware ADS-B
Mon 04:31:33 PM 38.8806 -77.5817 219° Southwest 434 499 34,000  Level FlightAware ADS-B
Mon 04:32:22 PM 38.8070 -77.6580 219° Southwest 434 499 34,000  Level FlightAware ADS-B
Mon 04:33:07 PM 38.7380 -77.7280 218° Southwest 432 497 34,000  Level FlightAware ADS-B
Mon 04:33:47 PM 38.6800 -77.7900 220° Southwest 434 499 34,000  Level FlightAware ADS-B
Mon 04:34:27 PM 38.6240 -77.8760 230° Southwest 437 503 34,000  Level FlightAware ADS-B
Mon 04:35:27 PM 38.5620 -77.9840 234° Southwest 438 504 34,000  Level FlightAware ADS-B
Mon 04:36:02 PM 38.5150 -78.0660 234° Southwest 437 503 34,000  Level FlightAware ADS-B
Mon 04:36:52 PM 38.4530 -78.1710 233° Southwest 436 502 34,000  Level FlightAware ADS-B
Mon 04:37:32 PM 38.4160 -78.2340 233° Southwest 434 499 34,000  Level FlightAware ADS-B
Mon 04:38:12 PM 38.3680 -78.3150 233° Southwest 430 495 34,000  Level FlightAware ADS-B
Mon 04:40:07 PM 38.2220 -78.5640 233° Southwest 430 495 34,000  Level FlightAware ADS-B
Mon 04:43:17 PM 37.9930 -78.9510 233° Southwest 34,000  Level FlightAware ADS-B
Mon 04:43:47 PM 37.9610 -79.0030 232° Southwest 432 497 34,000  Level FlightAware ADS-B
Mon 04:44:32 PM 37.9110 -79.0870 233° Southwest 432 497 34,000  Level FlightAware ADS-B
Mon 04:45:12 PM 37.8700 -79.1560 233° Southwest 432 497 34,000  Level FlightAware ADS-B
Mon 04:45:52 PM 37.8290 -79.2250 233° Southwest 432 497 34,000  Level FlightAware ADS-B
Mon 04:46:32 PM 37.7880 -79.2930 233° Southwest 432 497 34,000  Level FlightAware ADS-B
Mon 04:47:22 PM 37.7370 -79.3790 233° Southwest 432 497 34,000  Level FlightAware ADS-B
Mon 04:48:02 PM 37.6960 -79.4480 233° Southwest 432 497 34,000  Level FlightAware ADS-B
Mon 04:48:42 PM 37.6560 -79.5160 233° Southwest 432 497 34,000  Level FlightAware ADS-B
Mon 04:49:22 PM 37.6150 -79.5850 233° Southwest 432 497 34,000  Level FlightAware ADS-B
Mon 04:50:02 PM 37.5740 -79.6530 233° Southwest 432 497 34,000  Level FlightAware ADS-B
Mon 04:50:42 PM 37.5330 -79.7220 233° Southwest 432 497 34,000  Level FlightAware ADS-B
Mon 04:51:32 PM 37.4820 -79.8070 233° Southwest 432 497 34,000  Level FlightAware ADS-B
Mon 04:52:12 PM 37.4410 -79.8760 233° Southwest 432 497 34,000  Level FlightAware ADS-B
Mon 04:52:52 PM 37.4000 -79.9440 233° Southwest 432 497 34,000  Level FlightAware ADS-B
Mon 04:53:32 PM 37.3590 -80.0120 233° Southwest 432 497 34,000  Level FlightAware ADS-B
Mon 04:54:46 PM 36.9814 -80.3647 226° Southwest 464 534 34,000  Level Atlanta Center
Mon 05:00:00 PM 36.7616 -80.6443 226° Southwest  Level FlightAware Approximate
Mon 05:01:14 PM 36.4894 -81.1111 226° Southwest 473 544 34,000  Level FlightAware ADS-B
Mon 05:01:47 PM 36.3838 -81.2611 229° Southwest 467 537 34,000  Level FlightAware ADS-B
Mon 05:02:17 PM 36.3382 -81.3183 225° Southwest 465 535 34,000  Level FlightAware ADS-B
Mon 05:02:49 PM 36.2893 -81.3791 225° Southwest 460 529 34,000  Level FlightAware ADS-B
Mon 05:03:19 PM 36.2443 -81.4350 225° Southwest 457 526 34,000  Level FlightAware ADS-B
Mon 05:05:28 PM 36.0547 -81.6710 225° Southwest 447 514 34,000  Level FlightAware ADS-B
Mon 05:06:03 PM 36.0047 -81.7330 225° Southwest 446 513 34,000  Level FlightAware ADS-B
Mon 05:06:33 PM 35.9601 -81.7881 225° Southwest 445 512 34,000  Level FlightAware ADS-B
Mon 05:07:04 PM 35.9162 -81.8423 225° Southwest 445 512 34,000  Level FlightAware ADS-B
Mon 05:07:34 PM 35.8725 -81.8962 225° Southwest 446 513 34,000  Level FlightAware ADS-B
Mon 05:08:04 PM 35.8275 -81.9513 225° Southwest 448 516 34,000  Level FlightAware ADS-B
Mon 05:08:35 PM 35.7829 -82.0061 225° Southwest 450 518 34,000  Level FlightAware ADS-B
Mon 05:09:08 PM 35.7342 -82.0660 225° Southwest 450 518 34,000  Level FlightAware ADS-B
Mon 05:09:38 PM 35.6893 -82.1207 225° Southwest 451 519 34,000  Level FlightAware ADS-B
Mon 05:10:08 PM 35.6450 -82.1748 225° Southwest 451 519 34,000  Level FlightAware ADS-B
Mon 05:10:38 PM 35.6004 -82.2293 225° Southwest 453 521 34,000  Level FlightAware ADS-B
Mon 05:11:08 PM 35.5556 -82.2835 225° Southwest 454 522 34,000  Level FlightAware ADS-B
Mon 05:11:40 PM 35.5086 -82.3407 225° Southwest 456 525 34,000  Level FlightAware ADS-B
Mon 05:12:11 PM 35.4617 -82.3975 225° Southwest 457 526 34,000  Level FlightAware ADS-B
Mon 05:12:41 PM 35.4160 -82.4529 225° Southwest 458 527 34,000  Level FlightAware ADS-B
Mon 05:13:11 PM 35.3705 -82.5075 224° Southwest 458 527 34,000 -95 Level FlightAware ADS-B
Mon 05:13:44 PM 35.3197 -82.5624 221° Southwest 453 521 33,900 -469 Descending FlightAware ADS-B
Mon 05:14:15 PM 35.2692 -82.6148 220° Southwest 450 518 33,500 -762 Descending FlightAware ADS-B
Mon 05:14:47 PM 35.2201 -82.6666 221° Southwest 444 511 33,100 -625 Descending FlightAware ADS-B
Mon 05:15:03 PM 35.1951 -82.6932 221° Southwest 440 506 33,000 -783 Descending FlightAware ADS-B
Mon 05:15:33 PM 35.1484 -82.7426 221° Southwest 439 505 32,500 -984 Descending FlightAware ADS-B
Mon 05:16:04 PM 35.1016 -82.7926 221° Southwest 438 504 32,000 -871 Descending FlightAware ADS-B
Mon 05:16:35 PM 35.0550 -82.8422 221° Southwest 432 497 31,600 -885 Descending FlightAware ADS-B
Mon 05:17:05 PM 35.0092 -82.8908 221° Southwest 430 495 31,100 -968 Descending FlightAware ADS-B
Mon 05:17:37 PM 34.9615 -82.9413 221° Southwest 429 494 30,600 -1,238 Descending FlightAware ADS-B
Mon 05:18:08 PM 34.9159 -82.9893 221° Southwest 429 494 29,800 -1,368 Descending FlightAware ADS-B
Mon 05:18:34 PM 34.8758 -83.0310 220° Southwest 426 490 29,300 -1,091 Descending FlightAware ADS-B
Mon 05:19:14 PM 34.8174 -83.0929 221° Southwest 416 479 28,600 -1,579 Descending FlightAware ADS-B
Mon 05:19:50 PM 34.7642 -83.1485 221° Southwest 419 482 27,300 -1,970 Descending FlightAware ADS-B
Mon 05:20:21 PM 34.7190 -83.1957 221° Southwest 418 481 26,400 -1,818 Descending FlightAware ADS-B
Mon 05:20:56 PM 34.6686 -83.2483 221° Southwest 416 479 25,300 -2,029 Descending FlightAware ADS-B
Mon 05:21:29 PM 34.6212 -83.2977 221° Southwest 410 472 24,100 -2,286 Descending FlightAware ADS-B
Mon 05:21:59 PM 34.5781 -83.3426 221° Southwest 404 465 22,900 -2,194 Descending FlightAware ADS-B
Mon 05:23:02 PM 34.4920 -83.4320 221° Southwest 391 450 20,700 -2,097 Descending FlightAware ADS-B
Mon 05:23:42 PM 34.4380 -83.4880 221° Southwest 382 440 19,300 -2,025 Descending FlightAware ADS-B
Mon 05:24:22 PM 34.3870 -83.5410 221° Southwest 374 430 18,000 -1,976 Descending FlightAware ADS-B
Mon 05:25:07 PM 34.3260 -83.6030 220° Southwest 363 418 16,500 -2,000 Descending FlightAware ADS-B
Mon 05:25:52 PM 34.2710 -83.6600 221° Southwest 354 407 15,000 -1,906 Descending FlightAware ADS-B
Mon 05:26:32 PM 34.2210 -83.7120 221° Southwest 348 400 13,800 -1,875 Descending FlightAware ADS-B
Mon 05:27:12 PM 34.1720 -83.7620 220° Southwest 341 392 12,500 -1,200 Descending FlightAware ADS-B
Mon 05:27:57 PM 34.1190 -83.8170 221° Southwest 336 387 12,100 -494 Descending FlightAware ADS-B
Mon 05:28:37 PM 34.0710 -83.8660 220° Southwest 330 380 11,800 -635 Descending FlightAware ADS-B
Mon 05:29:22 PM 34.0230 -83.9170 221° Southwest 283 326 11,200 -918 Descending FlightAware ADS-B
Mon 05:30:02 PM 33.9850 -83.9570 221° Southwest 261 300 10,500 -1,091 Descending FlightAware ADS-B
Mon 05:30:17 PM 33.9680 -83.9650 201° Southwest 264 304 10,200 -1,350 Descending FlightAware ADS-B
Mon 05:30:42 PM 33.9360 -83.9610 174° South 277 319 9,600 -1,333 Descending FlightAware ADS-B
Mon 05:31:02 PM 33.9110 -83.9560 171° South 265 305 9,200 -800 Descending FlightAware ADS-B
Mon 05:31:27 PM 33.8840 -83.9510 171° South 259 298 9,000 -109 Descending FlightAware ADS-B
Mon 05:31:57 PM 33.8480 -83.9450 172° South 232 267 9,100 109 Climbing FlightAware ADS-B
Mon 05:32:22 PM 33.8210 -83.9390 170° South 232 267 9,100  Level FlightAware ADS-B
Mon 05:32:37 PM 33.8060 -83.9360 171° South 232 267 9,100 -133 Level FlightAware ADS-B
Mon 05:33:07 PM 33.7730 -83.9290 170° South 227 261 9,000 -133 Descending FlightAware ADS-B
Mon 05:33:22 PM 33.7570 -83.9260 171° South 232 267 9,000 -600 Level FlightAware ADS-B
Mon 05:33:47 PM 33.7320 -83.9210 171° South 230 265 8,600 -1,080 Descending FlightAware ADS-B
Mon 05:34:12 PM 33.7060 -83.9210 180° South 227 261 8,100 -1,029 Descending FlightAware ADS-B
Mon 05:34:57 PM 33.6710 -83.9420 207° Southwest 204 235 7,400 -600 Descending FlightAware ADS-B
Mon 05:35:22 PM 33.6630 -83.9650 247° West 204 235 7,400 -375 Level FlightAware ADS-B
Mon 05:36:01 PM 33.6333 -84.0167 247° West 208 239 7,000 -514 Descending Atlanta TRACON
Mon 05:37:07 PM 33.6333 -84.0833 270° West 179 206 6,500 -714 Descending Atlanta TRACON
Mon 05:38:07 PM 33.6333 -84.1500 270° West 180 207 5,500 -1,000 Descending Atlanta TRACON
Mon 05:40:07 PM 33.6333 -84.2667 270° West 188 216 3,500 -1,000 Descending Atlanta TRACON

Login

Don't have an account? Register now (free) for customized features, flight alerts, and more!